createdAt,value
2023-08-03T00:00:46.898Z,19.60
2023-08-03T00:06:03.958Z,19.64
2023-08-03T00:11:04.014Z,19.64
2023-08-03T00:16:05.149Z,19.62
2023-08-03T00:21:05.314Z,19.60
2023-08-03T00:26:06.019Z,19.60
2023-08-03T00:31:06.231Z,19.60
2023-08-03T00:36:06.160Z,19.68
2023-08-03T00:41:06.438Z,19.70
2023-08-03T00:46:06.086Z,19.70
2023-08-03T00:51:05.569Z,19.70
2023-08-03T00:56:05.144Z,19.70
2023-08-03T01:01:05.695Z,19.70
2023-08-03T01:06:05.799Z,19.70
2023-08-03T01:11:06.146Z,19.70
2023-08-03T01:16:07.478Z,19.78
2023-08-03T01:21:11.645Z,19.80
2023-08-03T01:26:10.955Z,19.80
2023-08-03T01:31:13.305Z,19.80
2023-08-03T01:36:12.550Z,19.80
2023-08-03T01:41:12.771Z,19.80
2023-08-03T01:46:13.021Z,19.80
2023-08-03T01:51:13.701Z,19.80
2023-08-03T01:56:12.771Z,19.80
2023-08-03T02:01:12.968Z,19.80
2023-08-03T02:06:13.339Z,19.70
2023-08-03T02:11:13.104Z,19.70
2023-08-03T02:21:16.163Z,19.64
2023-08-03T02:26:15.839Z,19.60
2023-08-03T02:31:15.540Z,19.60
2023-08-03T02:36:18.329Z,19.50
2023-08-03T02:41:19.357Z,19.50
2023-08-03T02:46:19.718Z,19.50
2023-08-03T02:51:23.206Z,19.50
2023-08-03T02:56:23.564Z,19.48
2023-08-03T03:01:24.023Z,19.40
2023-08-03T03:06:23.987Z,19.38
2023-08-03T03:11:24.405Z,19.30
2023-08-03T03:16:27.269Z,19.30
2023-08-03T03:21:27.208Z,19.30
2023-08-03T03:26:26.887Z,19.28
2023-08-03T03:31:26.113Z,19.28
2023-08-03T03:36:26.221Z,19.30
2023-08-03T03:41:25.832Z,19.30
2023-08-03T03:46:25.010Z,19.40
2023-08-03T03:51:24.605Z,19.40
2023-08-03T03:56:26.308Z,19.50
2023-08-03T04:01:25.643Z,19.50
2023-08-03T04:06:37.231Z,19.60
2023-08-03T04:11:36.523Z,19.70
2023-08-03T04:16:36.229Z,19.80
2023-08-03T04:21:36.097Z,19.90
2023-08-03T04:26:36.234Z,20.00
2023-08-03T04:31:39.992Z,20.00
2023-08-03T04:36:40.566Z,20.10
2023-08-03T04:41:40.445Z,20.10
2023-08-03T04:46:39.976Z,20.20
2023-08-03T04:51:39.241Z,20.20
2023-08-03T04:56:38.877Z,20.30
2023-08-03T05:01:38.922Z,20.30
2023-08-03T05:06:37.943Z,20.40
2023-08-03T05:11:37.554Z,20.40
2023-08-03T05:16:37.588Z,20.50
2023-08-03T05:21:37.304Z,20.70
2023-08-03T05:26:38.961Z,20.90
2023-08-03T05:31:38.548Z,21.00
2023-08-03T05:36:37.903Z,21.10
2023-08-03T05:41:38.006Z,21.10
2023-08-03T05:46:39.659Z,21.10
2023-08-03T05:51:40.947Z,21.10
2023-08-03T05:56:42.237Z,21.20
2023-08-03T06:01:45.085Z,21.30
2023-08-03T06:06:45.222Z,21.40
2023-08-03T06:11:47.655Z,21.50
2023-08-03T06:16:48.432Z,21.60
2023-08-03T06:21:47.686Z,21.70
2023-08-03T06:26:49.492Z,21.90
2023-08-03T06:31:49.649Z,22.10
2023-08-03T06:36:50.427Z,22.20
2023-08-03T06:41:50.039Z,22.30
2023-08-03T06:46:50.612Z,22.40
2023-08-03T06:51:50.035Z,22.50
2023-08-03T06:56:49.816Z,22.60
2023-08-03T07:01:49.391Z,22.66
2023-08-03T07:06:49.725Z,22.70
2023-08-03T07:12:16.867Z,22.80
2023-08-03T07:17:17.021Z,22.96
2023-08-03T07:22:16.192Z,23.10
2023-08-03T07:27:17.153Z,23.20
2023-08-03T07:32:16.598Z,23.20
2023-08-03T07:37:16.190Z,23.20
2023-08-03T07:42:15.197Z,23.20
2023-08-03T07:47:15.245Z,23.24
2023-08-03T07:52:16.622Z,23.30
2023-08-03T07:57:17.304Z,23.30
2023-08-03T08:02:17.358Z,23.30
2023-08-03T08:07:17.379Z,23.30
2023-08-03T08:12:16.856Z,23.30
2023-08-03T08:17:17.777Z,23.28
2023-08-03T08:22:18.355Z,23.20
2023-08-03T08:27:19.382Z,23.20
2023-08-03T08:32:21.386Z,23.20
2023-08-03T08:37:20.506Z,23.10
2023-08-03T08:42:19.875Z,23.10
2023-08-03T08:47:20.499Z,23.02
2023-08-03T08:52:22.502Z,22.92
2023-08-03T09:02:30.198Z,22.60
2023-08-03T09:07:30.280Z,22.46
2023-08-03T09:12:33.586Z,22.30
2023-08-03T09:17:33.857Z,22.20
2023-08-03T09:32:58.870Z,21.80
2023-08-03T09:38:01.420Z,21.70
2023-08-03T09:43:02.791Z,21.60
2023-08-03T09:48:05.411Z,21.50
2023-08-03T09:53:16.727Z,21.40
2023-08-03T09:58:25.961Z,21.36
2023-08-03T10:03:26.630Z,21.28
2023-08-03T10:08:33.701Z,21.20
2023-08-03T10:13:36.228Z,21.14
2023-08-03T10:23:41.076Z,21.10
2023-08-03T10:28:55.365Z,21.10
2023-08-03T10:34:28.072Z,21.10
2023-08-03T10:40:04.579Z,21.10
2023-08-03T10:45:30.956Z,21.00
2023-08-03T10:56:05.657Z,20.90
2023-08-03T11:01:07.373Z,20.90
2023-08-03T11:06:08.079Z,20.90
2023-08-03T11:11:23.596Z,21.00
2023-08-03T11:16:25.435Z,21.04
2023-08-03T11:21:24.583Z,21.00
2023-08-03T11:26:25.971Z,21.00
2023-08-03T11:31:25.914Z,20.90
2023-08-03T11:36:26.865Z,20.70
2023-08-03T11:41:33.133Z,20.64
2023-08-03T11:46:33.951Z,20.60
2023-08-03T11:51:40.977Z,20.40
2023-08-03T11:56:44.905Z,20.30
2023-08-03T12:01:54.445Z,20.20
2023-08-03T12:06:58.052Z,20.12
2023-08-03T12:12:05.776Z,20.20
2023-08-03T12:17:07.062Z,20.20
2023-08-03T12:22:12.350Z,20.30
2023-08-03T12:27:14.801Z,20.32
2023-08-03T12:32:15.555Z,20.36
2023-08-03T12:37:16.777Z,20.40
2023-08-03T12:42:21.797Z,20.40
2023-08-03T12:47:22.494Z,20.50
2023-08-03T12:52:23.888Z,20.50
2023-08-03T12:57:23.305Z,20.50
2023-08-03T13:02:22.414Z,20.50
2023-08-03T13:07:21.988Z,20.60
2023-08-03T13:12:21.275Z,20.76
2023-08-03T13:17:21.140Z,20.98
2023-08-03T13:22:21.128Z,21.10
2023-08-03T13:27:22.569Z,21.30
2023-08-03T13:32:22.211Z,22.00
2023-08-03T13:37:22.907Z,22.40
2023-08-03T13:42:22.096Z,22.60
2023-08-03T13:47:21.367Z,22.50
2023-08-03T13:52:22.233Z,22.40
2023-08-03T14:12:58.848Z,21.54
2023-08-03T14:22:53.372Z,21.54
2023-08-03T14:27:53.823Z,21.60
2023-08-03T14:32:53.110Z,21.80
2023-08-03T14:37:52.997Z,22.00
2023-08-03T14:47:58.894Z,23.46
2023-08-03T14:52:59.350Z,24.54
2023-08-03T14:57:58.106Z,25.40
2023-08-03T15:02:57.803Z,25.70
2023-08-03T15:07:58.433Z,26.10
2023-08-03T15:12:58.148Z,27.24
2023-08-03T15:17:59.044Z,28.50
2023-08-03T15:23:02.423Z,29.10
2023-08-03T15:28:02.659Z,29.64
2023-08-03T15:38:10.754Z,31.20
2023-08-03T15:43:14.432Z,31.60
2023-08-03T15:53:28.132Z,32.50
2023-08-03T15:58:32.933Z,33.24
2023-08-03T16:03:32.529Z,33.60
2023-08-03T16:08:32.172Z,33.70
2023-08-03T16:13:32.657Z,33.88
2023-08-03T16:18:32.928Z,34.42
2023-08-03T16:23:32.486Z,34.90
2023-08-03T16:28:32.071Z,35.10
2023-08-03T16:33:31.426Z,35.00
2023-08-03T16:38:31.352Z,34.80
2023-08-03T16:43:31.016Z,34.68
2023-08-03T16:48:40.132Z,34.74
2023-08-03T16:53:43.682Z,34.86
2023-08-03T16:58:43.439Z,34.80
2023-08-03T17:03:42.672Z,34.90
2023-08-03T17:08:41.995Z,34.88
2023-08-03T17:13:41.355Z,33.88
2023-08-03T17:18:42.278Z,33.90
2023-08-03T17:23:41.270Z,34.02
2023-08-03T17:28:43.740Z,33.72
2023-08-03T17:33:43.935Z,31.96
2023-08-03T17:38:44.115Z,30.38
2023-08-03T17:43:43.263Z,28.92
2023-08-03T17:48:43.107Z,27.78
2023-08-03T17:53:46.230Z,26.90
2023-08-03T17:58:48.666Z,25.96
2023-08-03T18:03:48.795Z,25.14
2023-08-03T18:08:48.837Z,24.50
2023-08-03T18:13:48.451Z,23.90
2023-08-03T18:18:51.294Z,23.50
2023-08-03T18:23:52.473Z,23.00
2023-08-03T18:28:53.321Z,22.56
2023-08-03T18:33:53.490Z,22.18
2023-08-03T18:38:55.181Z,21.80
2023-08-03T18:43:55.731Z,21.60
2023-08-03T18:48:57.343Z,21.40
2023-08-03T18:53:56.807Z,21.30
2023-08-03T18:59:01.269Z,21.10
2023-08-03T19:04:02.220Z,20.90
2023-08-03T19:09:01.888Z,20.60
2023-08-03T19:14:01.226Z,20.40
2023-08-03T19:19:00.992Z,20.14
2023-08-03T19:24:01.049Z,20.00
2023-08-03T19:29:00.552Z,19.80
2023-08-03T19:33:59.617Z,19.70
2023-08-03T19:38:58.277Z,19.60
2023-08-03T19:43:58.269Z,19.50
2023-08-03T19:48:57.010Z,19.40
2023-08-03T20:09:03.140Z,19.02
2023-08-03T20:14:02.511Z,19.00
2023-08-03T20:24:04.547Z,18.90
2023-08-03T20:29:05.006Z,18.80
2023-08-03T20:49:14.338Z,18.70
2023-08-03T20:59:15.715Z,18.70
2023-08-03T21:04:15.097Z,18.70
2023-08-03T21:09:14.452Z,18.80
2023-08-03T21:14:13.438Z,18.80
2023-08-03T21:19:13.749Z,18.82
2023-08-03T21:24:14.266Z,18.84
2023-08-03T21:29:13.155Z,18.80
2023-08-03T21:34:12.545Z,18.80
2023-08-03T21:39:11.888Z,18.74
2023-08-03T21:44:11.445Z,18.70
2023-08-03T21:49:11.417Z,18.70
2023-08-03T21:54:10.740Z,18.70
2023-08-03T21:59:12.497Z,18.70
2023-08-03T22:04:11.831Z,18.70
2023-08-03T22:09:11.244Z,18.80
2023-08-03T22:14:10.933Z,18.80
2023-08-03T22:19:11.098Z,18.86
2023-08-03T22:24:10.844Z,18.84
2023-08-03T22:29:11.029Z,18.90
2023-08-03T22:34:10.137Z,18.90
2023-08-03T22:39:09.919Z,18.90
2023-08-03T22:44:09.838Z,18.88
2023-08-03T22:49:08.913Z,18.88
2023-08-03T22:54:09.864Z,18.88
2023-08-03T22:59:09.304Z,18.80
2023-08-03T23:04:11.279Z,18.80
2023-08-03T23:09:10.199Z,18.80
2023-08-03T23:14:09.377Z,18.80
2023-08-03T23:19:08.919Z,18.80
2023-08-03T23:24:08.808Z,18.80
2023-08-03T23:29:08.384Z,18.82
2023-08-03T23:34:08.119Z,18.80
2023-08-03T23:39:06.975Z,18.80
2023-08-03T23:44:06.431Z,18.88
2023-08-03T23:49:05.647Z,18.88
2023-08-03T23:54:04.684Z,18.82
2023-08-03T23:59:03.997Z,18.90
